Time;durP1;ratioP1;P1;durP2;ratioP2;P2;SDS_P1;SDS_P2;PMS_P1;PMS_P2;Temp;Humidity;BMP_temperature;BMP_pressure;BME280_temperature;BME280_humidity;BME280_pressure;Samples;Min_cycle;Max_cycle;Signal;HPM_P1;HPM_P2
2022/10/21 00:02:11;;;;;;;4.78;4.10;;;;;;;21.80;43.73;95778.44;5059050;28;20125;-62
2022/10/21 00:04:38;;;;;;;6.18;4.30;;;;;;;21.50;43.74;95732.94;5058722;28;20032;-60
2022/10/21 00:07:04;;;;;;;5.28;4.18;;;;;;;21.86;43.83;95786.69;5060195;28;20115;-61
2022/10/21 00:09:29;;;;;;;5.75;4.05;;;;;;;21.92;43.61;95795.63;5056469;28;20144;-59
2022/10/21 00:11:55;;;;;;;5.55;4.18;;;;;;;21.65;43.68;95771.63;5059477;28;20473;-57
2022/10/21 00:14:20;;;;;;;4.65;3.72;;;;;;;18.79;43.32;95324.38;5044316;28;20033;-59
2022/10/21 00:16:46;;;;;;;5.55;4.18;;;;;;;21.29;44.09;95698.13;5056918;28;20086;-61
2022/10/21 00:19:19;;;;;;;5.35;4.00;;;;;;;21.88;43.89;95792.38;5036247;28;20522;-59
2022/10/21 00:21:45;;;;;;;4.75;3.95;;;;;;;21.87;43.75;95793.59;5060015;28;20045;-70
2022/10/21 00:24:10;;;;;;;4.88;3.70;;;;;;;21.72;43.72;95766.53;5044134;28;20036;-70
2022/10/21 00:26:36;;;;;;;5.20;3.78;;;;;;;21.69;43.71;95766.75;5053211;28;20544;-63
2022/10/21 00:29:01;;;;;;;4.25;3.65;;;;;;;21.09;44.17;95671.75;5061507;28;20719;-65
2022/10/21 00:31:27;;;;;;;5.28;3.75;;;;;;;21.85;43.80;95787.88;5061086;28;20028;-66
2022/10/21 00:33:53;;;;;;;5.70;4.35;;;;;;;20.91;43.77;95640.69;5061387;28;20032;-69
2022/10/21 00:36:18;;;;;;;5.03;4.18;;;;;;;21.04;43.74;95669.69;5052219;28;20151;-65
2022/10/21 00:38:45;;;;;;;4.43;3.67;;;;;;;21.85;43.69;95785.16;5057648;28;20048;-62
2022/10/21 00:41:11;;;;;;;5.32;3.65;;;;;;;21.60;43.71;95742.44;5058341;28;20045;-62
2022/10/21 00:43:58;;;;;;;4.65;3.88;;;;;;;21.83;43.83;95776.75;5056631;28;20045;-61
2022/10/21 00:46:36;;;;;;;5.05;4.15;;;;;;;21.68;44.07;95746.22;5059546;28;20043;-61
2022/10/21 00:49:08;;;;;;;4.80;3.88;;;;;;;21.82;43.96;95775.25;5045020;28;20399;-61
2022/10/21 00:51:33;;;;;;;5.07;4.00;;;;;;;21.32;43.89;95695.19;5052164;28;20040;-61
2022/10/21 00:53:59;;;;;;;4.95;4.10;;;;;;;21.67;43.74;95750.16;5062467;28;20072;-60
2022/10/21 00:56:26;;;;;;;4.47;3.80;;;;;;;21.71;44.08;95756.13;5050913;28;20257;-61
2022/10/21 00:58:52;;;;;;;4.78;4.15;;;;;;;21.75;43.84;95760.13;5060082;28;20048;-63
2022/10/21 01:01:18;;;;;;;4.63;4.07;;;;;;;21.22;43.80;95674.84;5028856;28;20055;-59
2022/10/21 01:03:43;;;;;;;5.32;4.10;;;;;;;21.78;43.81;95761.13;5043210;28;20020;-63
2022/10/21 01:06:09;;;;;;;5.80;4.38;;;;;;;21.78;43.39;95766.56;5056850;28;20036;-63
2022/10/21 01:08:35;;;;;;;5.40;4.43;;;;;;;21.35;43.91;95705.09;5043291;28;20045;-63
2022/10/21 01:11:01;;;;;;;4.72;4.00;;;;;;;21.75;43.57;95768.28;5061235;28;20048;-62
2022/10/21 01:13:38;;;;;;;5.50;4.15;;;;;;;21.46;44.10;95732.41;5042262;28;20020;-60
2022/10/21 01:16:16;;;;;;;4.97;3.97;;;;;;;21.76;43.74;95767.03;5040586;28;20035;-60
2022/10/21 01:18:41;;;;;;;5.60;4.30;;;;;;;21.77;43.67;95773.25;5033875;28;20051;-61
2022/10/21 01:21:12;;;;;;;4.63;3.97;;;;;;;21.75;43.75;95775.66;5059941;28;20490;-62
2022/10/21 01:24:28;;;;;;;5.25;4.20;;;;;;;21.74;43.77;95768.75;5058971;28;20047;-59
2022/10/21 01:27:28;;;;;;;5.68;4.22;;;;;;;21.74;43.94;95774.19;5024587;28;20049;-61
2022/10/21 01:30:19;;;;;;;4.27;3.87;;;;;;;21.73;43.86;95767.25;5056223;28;20087;-62
2022/10/21 01:33:06;;;;;;;5.75;3.95;;;;;;;21.73;43.85;95786.28;5044525;28;20028;-61
2022/10/21 01:36:10;;;;;;;4.72;3.72;;;;;;;21.71;43.82;95769.72;5045632;28;20037;-60
2022/10/21 01:38:45;;;;;;;4.90;3.80;;;;;;;21.17;43.79;95702.69;5053527;28;20135;-61
2022/10/21 01:41:24;;;;;;;4.78;4.00;;;;;;;21.60;43.73;95769.63;5026406;28;20136;-61
2022/10/21 01:44:11;;;;;;;5.38;4.07;;;;;;;21.72;43.79;95771.97;5038719;28;20715;-60
2022/10/21 01:46:41;;;;;;;5.40;4.25;;;;;;;21.00;43.71;95668.41;5051443;28;20041;-64
2022/10/21 01:49:17;;;;;;;5.40;4.07;;;;;;;21.48;43.93;95749.00;5037886;28;20040;-66
2022/10/21 01:51:42;;;;;;;5.05;4.05;;;;;;;21.17;43.64;95705.41;5025756;28;20373;-65
2022/10/21 01:54:10;;;;;;;5.20;4.20;;;;;;;21.57;43.79;95792.31;5041659;28;20114;-65
2022/10/21 01:56:35;;;;;;;5.20;4.10;;;;;;;21.54;43.65;95777.72;5034410;28;20132;-63
2022/10/21 01:59:01;;;;;;;5.00;3.90;;;;;;;20.76;43.78;95659.03;5025326;28;20060;-64
2022/10/21 02:01:26;;;;;;;5.00;4.25;;;;;;;20.96;43.63;95678.03;5023218;28;20468;-63
2022/10/21 02:03:55;;;;;;;5.47;4.47;;;;;;;20.29;43.73;95586.19;5040378;28;20434;-62
2022/10/21 02:06:20;;;;;;;4.90;4.10;;;;;;;21.34;43.77;95751.75;5027026;28;20515;-61
2022/10/21 02:08:46;;;;;;;4.85;4.03;;;;;;;21.68;43.84;95787.00;5058621;28;20107;-61
2022/10/21 02:11:11;;;;;;;4.78;3.85;;;;;;;21.37;43.86;95750.81;5042910;28;20423;-62
2022/10/21 02:14:01;;;;;;;4.63;3.90;;;;;;;21.65;43.88;95787.94;5037167;28;20044;-61
2022/10/21 02:16:29;;;;;;;5.55;3.95;;;;;;;21.37;43.62;95751.53;5030511;28;20045;-65
2022/10/21 02:18:55;;;;;;;4.85;4.13;;;;;;;20.75;43.87;95674.56;5030109;28;20106;-65
2022/10/21 02:21:22;;;;;;;5.43;4.35;;;;;;;21.60;43.59;95791.38;5057781;28;20032;-65
2022/10/21 02:23:53;;;;;;;5.25;4.13;;;;;;;21.51;44.06;95800.41;5023990;28;20040;-62
2022/10/21 02:26:20;;;;;;;6.05;3.88;;;;;;;20.80;43.72;95675.84;5054451;28;20040;-62
2022/10/21 02:28:45;;;;;;;5.35;4.40;;;;;;;20.75;43.76;95668.41;5055141;28;20079;-58
2022/10/21 02:31:35;;;;;;;4.65;4.13;;;;;;;20.82;43.79;95673.41;5022357;28;20094;-63
2022/10/21 02:34:09;;;;;;;5.38;4.10;;;;;;;21.62;43.84;95788.91;5050190;28;20041;-59
2022/10/21 02:36:53;;;;;;;5.22;3.97;;;;;;;20.46;43.71;95652.22;5060378;28;20178;-64
2022/10/21 02:39:24;;;;;;;6.13;4.22;;;;;;;21.44;43.90;95767.44;5059129;28;20049;-65
2022/10/21 02:41:49;;;;;;;5.75;4.50;;;;;;;21.62;43.90;95816.09;5045648;28;20040;-64
2022/10/21 02:44:15;;;;;;;5.57;4.15;;;;;;;20.64;43.89;95651.94;5040223;28;20056;-61
2022/10/21 02:46:47;;;;;;;5.50;4.60;;;;;;;21.61;43.85;95803.72;5059446;28;20041;-61
2022/10/21 02:49:13;;;;;;;5.18;4.45;;;;;;;21.60;43.83;95804.94;5041059;28;20039;-58
2022/10/21 02:51:39;;;;;;;4.65;3.92;;;;;;;21.36;43.79;95771.81;5060040;28;20122;-60
2022/10/21 02:54:04;;;;;;;5.05;4.15;;;;;;;20.06;43.76;95576.28;5026383;28;20402;-61
2022/10/21 02:56:30;;;;;;;5.47;4.63;;;;;;;21.60;43.91;95815.81;5057880;28;20507;-60
2022/10/21 02:58:55;;;;;;;5.55;4.88;;;;;;;21.09;43.92;95731.50;5057020;28;20040;-61
2022/10/21 03:01:21;;;;;;;5.50;4.43;;;;;;;20.99;43.70;95721.97;5057382;28;20946;-60
2022/10/21 03:03:47;;;;;;;5.07;4.35;;;;;;;21.14;43.77;95749.81;5042239;28;20029;-59
2022/10/21 03:06:13;;;;;;;6.47;4.65;;;;;;;21.57;43.92;95808.63;5034362;28;20058;-60
2022/10/21 03:08:38;;;;;;;6.35;5.05;;;;;;;20.67;43.64;95667.28;5041478;28;20502;-60
2022/10/21 03:11:04;;;;;;;4.45;3.95;;;;;;;21.57;43.90;95811.34;5043278;28;20122;-62
2022/10/21 03:13:30;;;;;;;5.57;4.28;;;;;;;21.16;43.82;95747.34;5039161;28;20021;-59
2022/10/21 03:15:55;;;;;;;7.32;4.90;;;;;;;21.21;43.79;95765.72;5044763;28;20470;-58
2022/10/21 03:18:21;;;;;;;6.05;4.55;;;;;;;21.17;43.85;95751.56;5040666;28;20159;-57
2022/10/21 03:20:50;;;;;;;5.45;4.28;;;;;;;21.55;43.84;95816.50;5039734;28;20041;-58
2022/10/21 03:23:17;;;;;;;6.25;4.82;;;;;;;21.55;43.55;95816.50;5042442;28;20060;-62
2022/10/21 03:25:42;;;;;;;5.53;4.60;;;;;;;21.57;43.69;95814.06;5040677;28;20041;-58
2022/10/21 03:28:08;;;;;;;6.63;4.38;;;;;;;20.82;43.89;95697.84;5043570;28;20025;-62
2022/10/21 03:30:34;;;;;;;5.82;4.72;;;;;;;21.54;43.85;95815.00;5039822;28;20037;-61
2022/10/21 03:32:59;;;;;;;5.85;4.70;;;;;;;21.30;43.93;95778.38;5037605;28;20045;-60
2022/10/21 03:35:25;;;;;;;7.07;5.00;;;;;;;21.53;43.91;95808.06;5040255;28;20045;-60
2022/10/21 03:37:51;;;;;;;6.78;4.90;;;;;;;21.32;44.07;95787.56;5043134;28;20041;-61
2022/10/21 03:40:16;;;;;;;5.75;4.45;;;;;;;21.42;43.94;95802.50;5024162;28;20519;-60
2022/10/21 03:42:42;;;;;;;6.38;5.07;;;;;;;21.06;43.81;95748.75;5039105;28;20118;-60
2022/10/21 03:45:08;;;;;;;5.38;4.55;;;;;;;21.51;43.73;95815.97;5042019;28;20044;-61
2022/10/21 03:47:33;;;;;;;6.00;5.03;;;;;;;21.10;43.93;95754.69;5040767;28;20052;-62
2022/10/21 03:49:59;;;;;;;5.85;4.78;;;;;;;21.54;43.77;95821.19;5036866;28;20053;-59
2022/10/21 03:52:25;;;;;;;6.68;4.97;;;;;;;20.92;43.42;95720.91;5041726;28;20378;-61
2022/10/21 03:54:50;;;;;;;6.65;5.25;;;;;;;21.08;43.24;95827.75;5046878;28;20029;-62
2022/10/21 03:57:16;;;;;;;7.13;5.50;;;;;;;20.83;43.23;95767.19;5053223;28;20043;-60
2022/10/21 03:59:42;;;;;;;6.65;5.50;;;;;;;21.29;43.67;95821.09;5053162;28;20133;-61
2022/10/21 04:02:07;;;;;;;6.93;5.32;;;;;;;21.08;43.52;95773.44;5059993;28;20037;-62
2022/10/21 04:04:32;;;;;;;7.60;5.25;;;;;;;20.87;43.08;95724.31;5031929;28;21944;-60
2022/10/21 04:06:58;;;;;;;7.07;5.03;;;;;;;21.15;43.31;95835.50;5036059;28;20044;-61
2022/10/21 04:09:24;;;;;;;7.28;5.50;;;;;;;21.16;43.78;95828.84;5030102;28;20053;-58
2022/10/21 04:11:50;;;;;;;6.57;5.13;;;;;;;21.28;44.07;95829.72;5044951;28;20465;-57
2022/10/21 04:14:15;;;;;;;6.70;5.50;;;;;;;21.40;44.32;95826.66;5037916;28;20045;-59
2022/10/21 04:16:41;;;;;;;6.13;5.32;;;;;;;21.45;43.84;95802.31;5048517;28;20044;-56
2022/10/21 04:19:06;;;;;;;6.85;5.05;;;;;;;21.50;43.78;95798.16;5037353;28;20022;-59
2022/10/21 04:21:32;;;;;;;6.68;5.53;;;;;;;21.86;43.31;95825.47;5008652;28;20057;-59
2022/10/21 04:23:57;;;;;;;7.55;5.22;;;;;;;20.53;43.01;95608.41;5037941;28;20618;-60
2022/10/21 04:26:23;;;;;;;5.88;4.93;;;;;;;21.99;42.88;95812.25;5027566;28;20206;-57
2022/10/21 04:28:50;;;;;;;6.03;5.10;;;;;;;22.02;42.95;95817.47;5043348;28;20045;-60
2022/10/21 04:31:15;;;;;;;6.45;4.85;;;;;;;21.97;42.89;95804.59;5051297;28;20139;-63
2022/10/21 04:33:41;;;;;;;6.57;4.90;;;;;;;21.63;42.70;95757.78;5043215;28;20059;-64
2022/10/21 04:36:06;;;;;;;5.97;4.40;;;;;;;20.95;42.77;95654.81;5058063;28;20052;-65
2022/10/21 04:38:32;;;;;;;6.68;4.70;;;;;;;21.82;43.01;95786.13;5036373;28;20113;-63
2022/10/21 04:40:58;;;;;;;5.10;4.43;;;;;;;21.59;42.61;95757.25;5036156;28;20040;-65
2022/10/21 04:43:24;;;;;;;5.15;4.45;;;;;;;22.03;42.69;95818.97;5043149;28;20073;-66
2022/10/21 04:45:50;;;;;;;5.85;4.57;;;;;;;22.06;42.98;95820.75;5019896;28;20044;-66
2022/10/21 04:48:15;;;;;;;6.10;4.68;;;;;;;22.09;42.58;95795.28;5021763;28;20478;-64
2022/10/21 04:50:41;;;;;;;6.75;4.75;;;;;;;21.95;42.31;95768.22;5044246;28;20108;-63
2022/10/21 04:53:06;;;;;;;5.50;4.45;;;;;;;22.06;42.43;95801.69;5040435;28;20118;-64
2022/10/21 04:55:32;;;;;;;5.93;4.53;;;;;;;22.31;42.41;95828.16;5034288;28;20115;-66
2022/10/21 04:57:58;;;;;;;5.40;4.03;;;;;;;22.07;42.55;95792.28;5040906;28;20095;-65
2022/10/21 05:00:23;;;;;;;5.30;4.30;;;;;;;22.34;42.66;95827.19;5040848;28;20049;-65
2022/10/21 05:02:49;;;;;;;5.22;4.32;;;;;;;22.04;42.40;95770.75;5064232;28;20032;-65
2022/10/21 05:05:15;;;;;;;5.07;3.88;;;;;;;22.45;42.60;95821.81;5071623;28;20132;-63
2022/10/21 05:07:40;;;;;;;6.10;4.60;;;;;;;22.53;42.13;95828.34;5050571;28;20039;-65
2022/10/21 05:10:06;;;;;;;5.43;4.40;;;;;;;22.57;42.53;95823.41;5047105;28;20805;-66
2022/10/21 05:12:32;;;;;;;5.85;4.40;;;;;;;22.64;42.28;95839.28;5074828;28;20093;-64
2022/10/21 05:14:59;;;;;;;5.70;4.35;;;;;;;21.93;42.01;95727.91;5068854;28;20040;-66
2022/10/21 05:17:25;;;;;;;5.10;4.47;;;;;;;22.23;41.90;95772.69;5072461;28;20044;-66
2022/10/21 05:19:51;;;;;;;5.85;4.28;;;;;;;22.85;42.51;95837.94;5078941;28;20043;-65
2022/10/21 05:22:17;;;;;;;5.32;4.32;;;;;;;22.62;42.90;95804.38;5073474;28;20020;-65
2022/10/21 05:24:42;;;;;;;5.05;4.20;;;;;;;22.96;42.70;95838.81;5069480;28;20409;-63
2022/10/21 05:27:08;;;;;;;5.25;4.13;;;;;;;22.62;42.50;95760.84;5065699;28;20040;-69
2022/10/21 05:29:34;;;;;;;5.07;4.00;;;;;;;23.29;43.57;95834.28;5073253;28;20039;-65
2022/10/21 05:31:59;;;;;;;5.55;4.10;;;;;;;23.52;43.84;95835.84;5070432;28;20032;-66
2022/10/21 05:34:25;;;;;;;6.72;3.97;;;;;;;23.49;44.03;95837.56;5074183;28;20020;-61
2022/10/21 05:36:50;;;;;;;4.18;3.47;;;;;;;22.66;43.95;95689.81;5055214;28;20043;-59
2022/10/21 05:39:16;;;;;;;4.80;3.70;;;;;;;23.49;43.33;95843.03;5048441;28;20131;-62
2022/10/21 05:41:42;;;;;;;5.65;3.80;;;;;;;22.29;43.17;95650.31;5074497;28;20110;-63
2022/10/21 05:44:07;;;;;;;5.65;4.38;;;;;;;23.52;43.47;95841.31;5054220;28;20033;-62
2022/10/21 05:46:33;;;;;;;6.00;4.28;;;;;;;23.58;42.52;95844.81;5062674;28;20507;-62
2022/10/21 05:48:58;;;;;;;5.28;3.90;;;;;;;23.62;41.95;95834.41;5069669;28;20055;-64
2022/10/21 05:51:25;;;;;;;6.00;4.47;;;;;;;23.27;41.35;95760.41;5073464;28;20119;-60
2022/10/21 05:53:54;;;;;;;6.18;4.20;;;;;;;23.82;41.67;95842.44;5070047;28;20040;-62
2022/10/21 05:56:20;;;;;;;7.85;4.10;;;;;;;23.70;41.45;95840.91;5053892;28;19947;-64
2022/10/21 05:58:45;;;;;;;5.25;3.85;;;;;;;23.30;41.22;95775.78;5043530;28;20483;-67
2022/10/21 06:01:10;;;;;;;5.38;4.00;;;;;;;22.93;41.10;95714.47;5061496;28;20028;-63
2022/10/21 06:03:36;;;;;;;4.90;3.95;;;;;;;22.88;41.14;95707.00;5061448;28;20576;-63
2022/10/21 06:06:03;;;;;;;4.78;3.67;;;;;;;23.09;40.56;95736.34;5052013;28;20064;-60
2022/10/21 06:08:29;;;;;;;6.32;3.95;;;;;;;23.88;40.29;95868.47;5050954;28;20110;-65
2022/10/21 06:11:06;;;;;;;4.25;3.72;;;;;;;23.23;40.81;95754.47;5042476;28;20079;-66
2022/10/21 06:13:32;;;;;;;4.82;3.92;;;;;;;24.04;40.05;95854.13;5031397;28;20049;-62
2022/10/21 06:15:58;;;;;;;4.93;3.72;;;;;;;23.28;40.44;95764.66;5061940;28;20036;-64
2022/10/21 06:18:23;;;;;;;4.65;3.60;;;;;;;23.59;40.83;95827.22;5061533;28;20053;-68
2022/10/21 06:20:48;;;;;;;5.00;3.80;;;;;;;23.36;40.28;95741.13;5077855;28;20102;-66
2022/10/21 06:23:15;;;;;;;5.22;4.50;;;;;;;24.31;40.04;95867.81;5075178;28;20035;-65
2022/10/21 06:25:53;;;;;;;4.75;3.53;;;;;;;23.44;39.82;95742.16;5083106;28;20535;-65
2022/10/21 06:28:18;;;;;;;4.65;3.90;;;;;;;23.15;39.92;95728.94;5076212;28;20048;-66
2022/10/21 06:30:43;;;;;;;6.18;3.70;;;;;;;23.43;39.91;95776.81;5084031;28;20877;-68
2022/10/21 06:33:09;;;;;;;5.18;4.13;;;;;;;24.37;39.77;95865.88;5079261;28;20035;-67
2022/10/21 06:35:34;;;;;;;5.50;4.05;;;;;;;23.17;39.64;95696.50;5079103;28;20051;-62
2022/10/21 06:38:00;;;;;;;4.43;3.53;;;;;;;24.09;40.25;95889.59;5078534;28;20048;-67
2022/10/21 06:40:25;;;;;;;5.75;3.80;;;;;;;24.23;39.83;95894.13;5067178;28;20036;-62
2022/10/21 06:42:51;;;;;;;5.32;3.58;;;;;;;23.75;39.29;95793.81;5065493;28;20624;-59
2022/10/21 06:45:17;;;;;;;4.85;3.72;;;;;;;24.21;39.92;95869.28;5045591;28;20101;-59
2022/10/21 06:47:42;;;;;;;4.40;3.60;;;;;;;23.49;39.85;95793.94;5071197;28;20036;-61
2022/10/21 06:50:08;;;;;;;4.50;3.55;;;;;;;24.14;40.28;95897.09;5078351;28;20040;-61
2022/10/21 06:52:33;;;;;;;5.38;4.07;;;;;;;23.95;40.64;95901.47;5080060;28;20036;-62
2022/10/21 06:54:59;;;;;;;4.78;3.72;;;;;;;23.68;40.21;95816.13;5082618;28;20077;-60
2022/10/21 06:57:26;;;;;;;5.47;3.80;;;;;;;23.85;40.79;95896.00;5072304;28;20493;-61
2022/10/21 06:59:52;;;;;;;5.20;3.67;;;;;;;23.45;40.32;95804.38;5062081;28;20044;-64
2022/10/21 07:02:17;;;;;;;6.70;4.15;;;;;;;23.91;40.83;95906.41;5068298;28;20047;-61
2022/10/21 07:04:44;;;;;;;5.30;3.75;;;;;;;22.92;40.36;95735.50;5072523;28;20040;-64
2022/10/21 07:09:44;;;;;;;5.63;4.00;;;;;;;23.92;40.21;95897.00;5321840;22;20350;-62
2022/10/21 07:12:10;;;;;;;4.95;3.65;;;;;;;23.70;40.26;95860.72;5052542;28;20036;-59
2022/10/21 07:17:11;;;;;;;4.75;3.80;;;;;;;23.55;40.27;95873.03;5110637;23;20044;-80
2022/10/21 07:19:37;;;;;;;5.43;4.03;;;;;;;23.71;40.66;95902.41;5060834;28;20045;-78
2022/10/21 07:22:02;;;;;;;4.97;3.90;;;;;;;20.99;40.27;95542.78;5077439;23;20121;-79
2022/10/21 07:25:07;;;;;;;4.45;3.55;;;;;;;23.59;41.07;95901.56;5003856;28;20524;-81
2022/10/21 07:28:00;;;;;;;5.22;3.97;;;;;;;20.15;40.39;95497.53;4915170;28;20043;-79
2022/10/21 07:30:49;;;;;;;4.97;3.78;;;;;;;18.57;39.81;95188.88;4884914;29;20069;-82
2022/10/21 07:33:49;;;;;;;5.55;4.18;;;;;;;22.04;40.61;95668.16;4898986;29;20044;-78
2022/10/21 07:36:30;;;;;;;4.18;3.72;;;;;;;21.89;40.77;95644.31;4915265;29;20043;-79
2022/10/21 07:39:16;;;;;;;4.68;3.50;;;;;;;22.41;40.10;95717.91;4922027;28;20045;-82
2022/10/21 07:41:44;;;;;;;5.55;4.10;;;;;;;23.59;40.60;95889.94;5018656;23;20040;-67
2022/10/21 07:44:09;;;;;;;5.50;4.20;;;;;;;23.52;40.68;95891.13;5042870;28;20099;-63
2022/10/21 07:46:36;;;;;;;6.57;4.07;;;;;;;21.94;41.07;95674.25;5008638;28;20524;-65
2022/10/21 07:49:02;;;;;;;5.22;3.55;;;;;;;23.44;41.05;95889.34;5061887;28;20024;-65
2022/10/21 07:51:27;;;;;;;4.20;3.33;;;;;;;23.35;41.06;95886.84;5041841;28;20055;-63
2022/10/21 07:53:54;;;;;;;5.10;3.60;;;;;;;23.34;41.23;95890.03;5051830;28;20060;-63
2022/10/21 07:56:21;;;;;;;5.18;3.97;;;;;;;23.45;40.71;95890.84;5041754;28;20116;-63
2022/10/21 07:58:47;;;;;;;4.70;3.60;;;;;;;23.48;40.67;95884.41;5039914;28;20098;-64
2022/10/21 08:01:13;;;;;;;5.70;4.00;;;;;;;23.48;40.57;95889.84;5058755;28;20491;-63
2022/10/21 08:03:38;;;;;;;4.70;3.97;;;;;;;23.42;40.93;95902.72;5040628;28;20189;-63
2022/10/21 08:06:04;;;;;;;5.25;3.55;;;;;;;23.52;40.47;95885.66;5059391;28;20040;-63
2022/10/21 08:08:30;;;;;;;5.38;3.83;;;;;;;23.49;40.54;95888.63;5037835;28;20044;-64
2022/10/21 08:10:55;;;;;;;5.00;4.00;;;;;;;23.45;41.14;95882.66;5059352;28;20453;-63
2022/10/21 08:13:21;;;;;;;5.18;3.70;;;;;;;23.45;40.71;95882.66;5059603;28;20039;-67
2022/10/21 08:15:51;;;;;;;4.60;3.65;;;;;;;23.36;41.21;95893.03;5059990;28;20032;-64
2022/10/21 08:18:16;;;;;;;5.50;3.95;;;;;;;23.32;40.84;95898.72;5056069;28;20091;-60
2022/10/21 08:20:43;;;;;;;5.68;4.18;;;;;;;23.13;41.15;95854.00;5025655;28;20532;-64
2022/10/21 08:23:09;;;;;;;5.10;3.45;;;;;;;23.36;41.08;95844.69;5023088;28;20587;-64
2022/10/21 08:25:35;;;;;;;4.22;3.53;;;;;;;23.32;40.94;95849.66;5041822;28;20047;-64
2022/10/21 08:28:01;;;;;;;4.70;3.55;;;;;;;23.42;40.70;95861.81;5059388;28;20040;-64
2022/10/21 08:30:30;;;;;;;4.90;3.80;;;;;;;23.38;40.75;95869.50;5058821;28;20142;-68
2022/10/21 08:32:57;;;;;;;4.83;3.93;;;;;;;23.35;41.00;95870.47;5035558;28;20219;-64
2022/10/21 08:35:22;;;;;;;4.75;3.88;;;;;;;23.42;40.85;95864.53;5042717;28;20837;-64
2022/10/21 08:37:48;;;;;;;4.40;3.65;;;;;;;23.43;40.97;95866.06;5062621;28;20048;-63
2022/10/21 08:40:14;;;;;;;5.20;3.85;;;;;;;22.07;40.99;95669.16;5043396;28;20032;-65
2022/10/21 08:42:44;;;;;;;5.13;4.07;;;;;;;23.38;40.78;95869.50;5031238;28;20024;-65
2022/10/21 08:45:14;;;;;;;4.82;3.88;;;;;;;23.42;40.90;95864.53;5060563;28;20045;-68
2022/10/21 08:47:44;;;;;;;5.07;3.92;;;;;;;23.40;40.53;95856.13;5024832;28;20128;-69
2022/10/21 08:50:14;;;;;;;5.00;3.75;;;;;;;23.59;41.02;95859.94;5040419;28;20040;-63
2022/10/21 08:52:45;;;;;;;4.63;4.05;;;;;;;23.59;40.61;95862.66;5042377;28;20036;-66
2022/10/21 08:55:22;;;;;;;6.15;3.83;;;;;;;23.61;40.37;95865.63;5040762;28;20040;-68
2022/10/21 08:57:48;;;;;;;10.55;4.22;;;;;;;23.61;40.43;95860.19;5050874;28;20048;-67
2022/10/21 09:00:17;;;;;;;5.22;4.28;;;;;;;23.54;40.81;95860.63;5038835;28;20052;-63
2022/10/21 09:02:47;;;;;;;4.63;3.92;;;;;;;21.97;40.67;95619.66;5039967;28;20118;-67
2022/10/21 09:05:32;;;;;;;5.88;3.92;;;;;;;23.49;40.89;95864.81;5039794;28;20429;-66
2022/10/21 09:08:07;;;;;;;4.63;3.80;;;;;;;23.55;40.71;95840.31;5022734;28;20044;-64
2022/10/21 09:11:01;;;;;;;5.20;3.90;;;;;;;23.59;40.93;95868.13;5058725;28;20114;-64
2022/10/21 09:13:49;;;;;;;4.60;3.67;;;;;;;23.58;40.76;95844.81;5048882;28;20044;-65
2022/10/21 09:16:36;;;;;;;7.13;4.57;;;;;;;23.62;40.96;95828.97;5059604;28;20086;-65
2022/10/21 09:19:46;;;;;;;6.63;4.13;;;;;;;23.68;40.55;95818.84;5042829;28;20087;-64
2022/10/21 09:22:30;;;;;;;;;;;;;;;23.70;40.48;95830.00;5046643;28;20355;-63
2022/10/21 09:25:02;;;;;;;7.78;3.88;;;;;;;23.94;39.72;95845.41;5059896;28;20007;-67
2022/10/21 09:27:27;;;;;;;5.60;4.20;;;;;;;23.77;39.94;95797.53;5033707;28;20051;-62
2022/10/21 09:29:57;;;;;;;5.22;3.88;;;;;;;23.98;39.86;95780.44;5041452;28;20044;-65
2022/10/21 09:32:27;;;;;;;5.22;4.07;;;;;;;24.24;39.29;95802.78;5023756;28;21078;-67
2022/10/21 09:34:55;;;;;;;22.60;9.00;;;;;;;23.11;39.35;95614.00;5037001;28;20052;-67
2022/10/21 09:37:34;;;;;;;54.30;23.17;;;;;;;23.42;39.31;95651.94;5059508;28;20033;-65
2022/10/21 09:40:23;;;;;;;271.03;109.27;;;;;;;24.23;37.35;95817.69;5059968;28;20029;-63
2022/10/21 09:42:50;;;;;;;211.40;86.30;;;;;;;24.11;36.98;95821.66;5059342;28;20412;-67
2022/10/21 09:45:32;;;;;;;154.98;66.10;;;;;;;24.34;36.44;95817.00;5025319;28;20130;-64
2022/10/21 09:48:16;;;;;;;123.70;52.90;;;;;;;24.28;36.20;95819.69;5061695;28;20277;-66
2022/10/21 09:50:42;;;;;;;107.60;47.17;;;;;;;24.61;36.38;95817.72;5063428;28;20067;-64
2022/10/21 09:53:19;;;;;;;83.20;39.05;;;;;;;24.81;35.20;95816.69;5042742;28;20040;-66
2022/10/21 09:55:45;;;;;;;78.30;38.22;;;;;;;24.69;35.76;95821.41;5045425;28;20040;-61
2022/10/21 09:58:42;;;;;;;71.05;33.17;;;;;;;25.25;34.55;95823.59;5044968;28;20028;-66
2022/10/21 10:01:08;;;;;;;62.60;34.15;;;;;;;24.79;35.32;95789.88;5025999;28;20110;-63
2022/10/21 10:03:38;;;;;;;57.33;32.45;;;;;;;25.17;34.43;95814.44;5059406;28;20036;-66
2022/10/21 10:06:04;;;;;;;53.30;33.65;;;;;;;24.74;35.02;95762.56;5053580;28;20048;-65
2022/10/21 10:08:43;;;;;;;70.85;37.28;;;;;;;23.53;35.47;95602.91;5028658;28;20067;-67
2022/10/21 10:11:08;;;;;;;54.50;32.22;;;;;;;25.15;34.71;95803.22;5061200;28;20047;-64
2022/10/21 10:13:45;;;;;;;52.28;31.08;;;;;;;25.30;34.18;95787.28;5059033;28;20095;-65
2022/10/21 10:16:30;;;;;;;49.10;27.88;;;;;;;24.21;33.89;95601.81;5015156;28;20030;-62
2022/10/21 10:19:28;;;;;;;45.45;24.73;;;;;;;25.26;34.12;95778.59;5042954;28;20056;-61
2022/10/21 10:22:13;;;;;;;42.45;23.65;;;;;;;24.16;33.31;95594.41;5039304;28;20048;-62
2022/10/21 10:24:39;;;;;;;39.55;23.90;;;;;;;25.12;34.18;95776.91;5045372;28;20114;-66
2022/10/21 10:27:19;;;;;;;43.88;26.85;;;;;;;25.10;34.36;95773.94;5044881;28;20049;-62
2022/10/21 10:29:51;;;;;;;36.15;23.40;;;;;;;25.14;33.61;95736.16;5028051;28;20044;-63
2022/10/21 10:32:16;;;;;;;33.47;21.40;;;;;;;25.66;33.07;95780.66;5041969;28;20130;-66
2022/10/21 10:34:53;;;;;;;37.63;20.67;;;;;;;25.44;33.51;95775.28;5060791;28;20531;-66
2022/10/21 10:37:23;;;;;;;30.85;18.65;;;;;;;25.48;32.59;95773.03;5042423;28;20028;-66
2022/10/21 10:39:51;;;;;;;32.20;19.50;;;;;;;25.18;33.08;95728.41;5043826;28;20028;-66
2022/10/21 10:42:26;;;;;;;34.28;20.23;;;;;;;24.05;33.22;95566.38;5027253;28;20095;-62
2022/10/21 10:44:54;;;;;;;31.77;20.67;;;;;;;24.96;33.80;95747.63;5043158;28;20039;-66
2022/10/21 10:47:29;;;;;;;28.73;19.13;;;;;;;25.14;33.76;95763.50;5026785;28;20041;-66
2022/10/21 10:49:55;;;;;;;28.92;19.00;;;;;;;25.21;33.67;95745.81;5027087;28;20132;-61
2022/10/21 10:52:23;;;;;;;28.60;17.52;;;;;;;24.93;33.75;95732.22;5058411;28;20454;-64
2022/10/21 10:55:11;;;;;;;27.20;17.77;;;;;;;25.17;33.61;95726.94;5059058;28;20037;-63
2022/10/21 10:57:37;;;;;;;27.25;16.33;;;;;;;25.28;32.64;95696.81;5062249;28;20053;-63
2022/10/21 11:00:05;;;;;;;23.60;15.50;;;;;;;25.36;33.21;95730.56;5044565;28;20144;-63
2022/10/21 11:02:39;;;;;;;29.60;16.20;;;;;;;25.18;33.10;95703.81;5043594;28;20845;-63
2022/10/21 11:05:22;;;;;;;24.60;15.68;;;;;;;25.25;33.49;95730.63;5044101;28;20055;-62
2022/10/21 11:07:52;;;;;;;22.58;14.73;;;;;;;24.09;33.33;95551.25;5060744;28;20033;-66
2022/10/21 11:10:32;;;;;;;31.15;18.98;;;;;;;25.08;34.79;95705.38;5060292;28;20074;-65
2022/10/21 11:12:59;;;;;;;21.15;13.68;;;;;;;25.24;34.01;95722.94;5044629;28;20032;-68
2022/10/21 11:15:35;;;;;;;19.38;12.90;;;;;;;25.32;33.24;95702.78;5026466;28;20063;-64
2022/10/21 11:18:17;;;;;;;16.15;11.55;;;;;;;24.88;33.70;95716.56;5027341;28;20400;-66
2022/10/21 11:20:55;;;;;;;15.57;11.30;;;;;;;24.45;34.28;95713.97;5044280;28;20071;-67
2022/10/21 11:23:50;;;;;;;13.07;10.52;;;;;;;23.76;34.43;95675.31;5048892;28;20037;-63
2022/10/21 11:26:42;;;;;;;14.48;9.63;;;;;;;24.42;33.97;95709.50;5026277;28;20033;-65
2022/10/21 11:29:10;;;;;;;13.45;9.27;;;;;;;23.54;33.20;95538.94;5055277;28;20040;-64
2022/10/21 11:31:40;;;;;;;13.70;9.38;;;;;;;23.50;34.41;95685.66;5048036;28;20757;-65
2022/10/21 11:34:39;;;;;;;11.85;9.05;;;;;;;23.96;33.97;95690.19;5028245;28;20028;-67
2022/10/21 11:37:31;;;;;;;10.90;8.35;;;;;;;24.45;33.08;95692.13;5034911;28;20048;-65
2022/10/21 11:40:02;;;;;;;11.23;8.32;;;;;;;24.02;33.99;95693.66;5043904;28;20083;-68
2022/10/21 11:42:37;;;;;;;12.95;8.77;;;;;;;23.76;33.42;95654.22;5043256;28;20094;-68
2022/10/21 11:45:29;;;;;;;12.00;8.75;;;;;;;23.99;33.75;95688.44;5024862;28;20041;-62
2022/10/21 11:48:05;;;;;;;10.38;8.10;;;;;;;24.04;32.96;95646.78;5050251;28;20149;-65
2022/10/21 11:50:49;;;;;;;12.35;8.40;;;;;;;23.42;34.40;95673.75;5043923;28;20524;-68
2022/10/21 11:53:33;;;;;;;12.45;8.88;;;;;;;22.73;34.83;95608.41;5043472;28;20168;-62